sensor_id;sensor_type;location;lat;lon;timestamp;pressure;altitude;pressure_sealevel;temperature;humidity
75972;BME280;64651;47.540;19.088;2023-04-03T00:04:38;100363.72;;;6.84;61.48
75972;BME280;64651;47.540;19.088;2023-04-03T00:09:43;100353.97;;;6.72;61.88
75972;BME280;64651;47.540;19.088;2023-04-03T00:14:46;100343.25;;;6.65;62.02
75972;BME280;64651;47.540;19.088;2023-04-03T00:19:48;100356.47;;;6.73;61.85
75972;BME280;64651;47.540;19.088;2023-04-03T00:24:50;100352.78;;;6.63;61.73
75972;BME280;64651;47.540;19.088;2023-04-03T00:29:52;100360.47;;;6.66;61.67
75972;BME280;64651;47.540;19.088;2023-04-03T00:34:55;100353.38;;;6.65;61.57
75972;BME280;64651;47.540;19.088;2023-04-03T00:39:57;100360.09;;;6.57;61.69
75972;BME280;64651;47.540;19.088;2023-04-03T00:50:03;100375.94;;;6.77;61.35
75972;BME280;64651;47.540;19.088;2023-04-03T00:55:07;100370.44;;;6.99;61.03
75972;BME280;64651;47.540;19.088;2023-04-03T01:00:13;100374.94;;;6.83;60.74
75972;BME280;64651;47.540;19.088;2023-04-03T01:05:17;100391.53;;;6.76;61.05
75972;BME280;64651;47.540;19.088;2023-04-03T01:10:21;100388.06;;;6.86;60.40
75972;BME280;64651;47.540;19.088;2023-04-03T01:15:25;100390.34;;;6.72;60.48
75972;BME280;64651;47.540;19.088;2023-04-03T01:25:35;100383.75;;;6.68;60.35
75972;BME280;64651;47.540;19.088;2023-04-03T01:30:47;100380.00;;;6.74;60.33
75972;BME280;64651;47.540;19.088;2023-04-03T01:35:50;100377.00;;;6.54;60.54
75972;BME280;64651;47.540;19.088;2023-04-03T01:40:53;100374.22;;;6.49;60.42
75972;BME280;64651;47.540;19.088;2023-04-03T01:45:55;100381.56;;;6.48;60.48
75972;BME280;64651;47.540;19.088;2023-04-03T01:50:57;100382.84;;;6.41;60.29
75972;BME280;64651;47.540;19.088;2023-04-03T01:56:11;100385.50;;;6.36;60.49
75972;BME280;64651;47.540;19.088;2023-04-03T02:01:13;100390.41;;;6.34;60.78
75972;BME280;64651;47.540;19.088;2023-04-03T02:06:35;100385.19;;;6.32;60.12
75972;BME280;64651;47.540;19.088;2023-04-03T02:11:42;100394.41;;;6.26;60.13
75972;BME280;64651;47.540;19.088;2023-04-03T02:16:45;100392.59;;;6.15;60.51
75972;BME280;64651;47.540;19.088;2023-04-03T02:21:50;100398.31;;;6.14;60.38
75972;BME280;64651;47.540;19.088;2023-04-03T02:27:00;100385.66;;;6.07;60.35
75972;BME280;64651;47.540;19.088;2023-04-03T02:32:05;100402.78;;;6.03;61.38
75972;BME280;64651;47.540;19.088;2023-04-03T02:37:09;100397.44;;;5.91;61.68
75972;BME280;64651;47.540;19.088;2023-04-03T02:42:13;100402.59;;;5.76;62.06
75972;BME280;64651;47.540;19.088;2023-04-03T02:47:15;100400.09;;;5.75;61.84
75972;BME280;64651;47.540;19.088;2023-04-03T02:52:18;100398.38;;;5.85;61.76
75972;BME280;64651;47.540;19.088;2023-04-03T03:03:13;100407.53;;;5.62;62.06
75972;BME280;64651;47.540;19.088;2023-04-03T03:08:16;100393.06;;;5.45;62.55
75972;BME280;64651;47.540;19.088;2023-04-03T03:13:22;100417.53;;;5.40;62.93
75972;BME280;64651;47.540;19.088;2023-04-03T03:18:25;100416.94;;;5.38;62.97
75972;BME280;64651;47.540;19.088;2023-04-03T03:23:28;100420.78;;;5.25;63.41
75972;BME280;64651;47.540;19.088;2023-04-03T03:28:32;100422.94;;;5.23;63.77
75972;BME280;64651;47.540;19.088;2023-04-03T03:33:35;100419.25;;;5.29;63.80
75972;BME280;64651;47.540;19.088;2023-04-03T03:38:37;100423.44;;;5.20;63.68
75972;BME280;64651;47.540;19.088;2023-04-03T03:43:40;100421.88;;;5.24;63.88
75972;BME280;64651;47.540;19.088;2023-04-03T03:48:43;100423.50;;;5.25;63.94
75972;BME280;64651;47.540;19.088;2023-04-03T03:53:45;100424.41;;;5.14;64.18
75972;BME280;64651;47.540;19.088;2023-04-03T03:58:48;100421.44;;;5.16;64.44
75972;BME280;64651;47.540;19.088;2023-04-03T04:03:51;100433.78;;;5.07;64.82
75972;BME280;64651;47.540;19.088;2023-04-03T04:08:56;100432.66;;;4.91;65.11
75972;BME280;64651;47.540;19.088;2023-04-03T04:13:58;100428.19;;;4.85;65.61
75972;BME280;64651;47.540;19.088;2023-04-03T04:19:00;100425.94;;;4.70;66.25
75972;BME280;64651;47.540;19.088;2023-04-03T04:24:02;100429.63;;;4.64;66.48
75972;BME280;64651;47.540;19.088;2023-04-03T04:29:04;100434.28;;;4.40;67.20
75972;BME280;64651;47.540;19.088;2023-04-03T04:34:07;100443.41;;;4.34;67.63
75972;BME280;64651;47.540;19.088;2023-04-03T04:39:09;100449.94;;;4.45;67.79
75972;BME280;64651;47.540;19.088;2023-04-03T04:44:11;100442.94;;;4.49;67.51
75972;BME280;64651;47.540;19.088;2023-04-03T04:49:13;100451.94;;;4.49;67.16
75972;BME280;64651;47.540;19.088;2023-04-03T04:54:16;100451.84;;;4.44;67.32
75972;BME280;64651;47.540;19.088;2023-04-03T04:59:18;100445.75;;;4.66;67.08
75972;BME280;64651;47.540;19.088;2023-04-03T05:04:22;100450.72;;;4.80;66.17
75972;BME280;64651;47.540;19.088;2023-04-03T05:09:25;100460.75;;;4.92;65.69
75972;BME280;64651;47.540;19.088;2023-04-03T05:14:27;100467.34;;;5.07;65.22
75972;BME280;64651;47.540;19.088;2023-04-03T05:19:31;100469.19;;;5.30;65.16
75972;BME280;64651;47.540;19.088;2023-04-03T05:24:33;100469.28;;;4.95;65.43
75972;BME280;64651;47.540;19.088;2023-04-03T05:29:35;100483.44;;;4.69;66.09
75972;BME280;64651;47.540;19.088;2023-04-03T05:34:37;100479.34;;;4.95;66.26
75972;BME280;64651;47.540;19.088;2023-04-03T05:39:39;100465.28;;;4.86;66.36
75972;BME280;64651;47.540;19.088;2023-04-03T05:44:42;100475.62;;;4.49;67.14
75972;BME280;64651;47.540;19.088;2023-04-03T05:49:45;100481.53;;;4.46;67.70
75972;BME280;64651;47.540;19.088;2023-04-03T05:54:47;100474.69;;;4.32;68.10
75972;BME280;64651;47.540;19.088;2023-04-03T05:59:50;100493.75;;;4.43;67.81
75972;BME280;64651;47.540;19.088;2023-04-03T06:04:52;100479.88;;;4.33;67.74
75972;BME280;64651;47.540;19.088;2023-04-03T06:09:56;100492.59;;;4.51;68.39
75972;BME280;64651;47.540;19.088;2023-04-03T06:14:58;100484.63;;;4.61;67.41
75972;BME280;64651;47.540;19.088;2023-04-03T06:20:01;100487.56;;;4.83;66.84
75972;BME280;64651;47.540;19.088;2023-04-03T06:25:03;100497.34;;;5.07;65.76
75972;BME280;64651;47.540;19.088;2023-04-03T06:30:07;100490.59;;;5.38;64.75
75972;BME280;64651;47.540;19.088;2023-04-03T06:35:09;100489.19;;;5.64;63.60
75972;BME280;64651;47.540;19.088;2023-04-03T06:40:20;100502.50;;;6.05;62.15
75972;BME280;64651;47.540;19.088;2023-04-03T06:45:23;100503.31;;;6.23;61.49
75972;BME280;64651;47.540;19.088;2023-04-03T06:50:27;100493.56;;;6.43;60.63
75972;BME280;64651;47.540;19.088;2023-04-03T06:55:29;100502.66;;;6.49;59.32
75972;BME280;64651;47.540;19.088;2023-04-03T07:00:31;100501.78;;;6.65;57.14
75972;BME280;64651;47.540;19.088;2023-04-03T07:05:34;100511.72;;;7.10;55.74
75972;BME280;64651;47.540;19.088;2023-04-03T07:10:37;100522.41;;;7.55;53.76
75972;BME280;64651;47.540;19.088;2023-04-03T07:15:40;100530.16;;;8.17;52.49
75972;BME280;64651;47.540;19.088;2023-04-03T07:20:43;100537.00;;;8.83;50.66
75972;BME280;64651;47.540;19.088;2023-04-03T07:25:46;100528.84;;;8.98;49.06
75972;BME280;64651;47.540;19.088;2023-04-03T07:31:00;100529.78;;;9.14;48.41
75972;BME280;64651;47.540;19.088;2023-04-03T07:36:07;100534.09;;;9.72;47.18
75972;BME280;64651;47.540;19.088;2023-04-03T07:41:14;100533.34;;;9.87;46.39
75972;BME280;64651;47.540;19.088;2023-04-03T07:46:20;100533.97;;;10.29;45.92
75972;BME280;64651;47.540;19.088;2023-04-03T07:51:24;100544.69;;;10.56;44.27
75972;BME280;64651;47.540;19.088;2023-04-03T07:56:28;100534.69;;;11.11;43.44
75972;BME280;64651;47.540;19.088;2023-04-03T08:01:34;100539.59;;;11.34;42.39
75972;BME280;64651;47.540;19.088;2023-04-03T08:06:36;100545.31;;;12.02;41.70
75972;BME280;64651;47.540;19.088;2023-04-03T08:11:47;100544.63;;;12.20;40.66
75972;BME280;64651;47.540;19.088;2023-04-03T08:16:50;100547.59;;;12.63;40.29
75972;BME280;64651;47.540;19.088;2023-04-03T08:21:54;100544.72;;;12.78;38.59
75972;BME280;64651;47.540;19.088;2023-04-03T08:26:57;100537.09;;;13.22;38.05
75972;BME280;64651;47.540;19.088;2023-04-03T08:31:59;100550.62;;;13.90;36.92
75972;BME280;64651;47.540;19.088;2023-04-03T08:37:01;100538.44;;;16.03;32.03
75972;BME280;64651;47.540;19.088;2023-04-03T08:42:13;100543.19;;;16.24;31.15
75972;BME280;64651;47.540;19.088;2023-04-03T08:47:39;100543.31;;;17.96;29.58
75972;BME280;64651;47.540;19.088;2023-04-03T08:52:52;100543.47;;;18.08;28.71
75972;BME280;64651;47.540;19.088;2023-04-03T08:58:01;100537.69;;;17.62;29.27
75972;BME280;64651;47.540;19.088;2023-04-03T09:03:04;100541.87;;;18.42;28.03
75972;BME280;64651;47.540;19.088;2023-04-03T09:08:41;100541.47;;;19.50;26.78
75972;BME280;64651;47.540;19.088;2023-04-03T09:19:03;100533.91;;;19.42;25.77
75972;BME280;64651;47.540;19.088;2023-04-03T09:24:10;100534.84;;;21.57;23.69
75972;BME280;64651;47.540;19.088;2023-04-03T09:29:23;100534.00;;;22.17;21.66
75972;BME280;64651;47.540;19.088;2023-04-03T09:34:35;100538.25;;;19.22;24.83
75972;BME280;64651;47.540;19.088;2023-04-03T09:39:52;100546.09;;;18.31;27.18
75972;BME280;64651;47.540;19.088;2023-04-03T09:45:00;100541.34;;;17.09;29.57
75972;BME280;64651;47.540;19.088;2023-04-03T09:50:17;100539.63;;;21.81;22.18
75972;BME280;64651;47.540;19.088;2023-04-03T09:55:26;100538.81;;;16.46;28.98
75972;BME280;64651;47.540;19.088;2023-04-03T10:00:35;100535.09;;;15.24;30.85
75972;BME280;64651;47.540;19.088;2023-04-03T10:05:41;100534.25;;;13.94;33.41
75972;BME280;64651;47.540;19.088;2023-04-03T10:10:46;100539.75;;;13.32;35.54
75972;BME280;64651;47.540;19.088;2023-04-03T10:16:06;100544.41;;;13.08;35.68
75972;BME280;64651;47.540;19.088;2023-04-03T10:32:07;100537.78;;;13.57;35.65
75972;BME280;64651;47.540;19.088;2023-04-03T10:43:06;100546.66;;;12.09;36.31
75972;BME280;64651;47.540;19.088;2023-04-03T10:53:42;100542.97;;;12.24;35.17
75972;BME280;64651;47.540;19.088;2023-04-03T10:58:53;100544.66;;;12.54;36.19
75972;BME280;64651;47.540;19.088;2023-04-03T11:03:59;100536.34;;;14.20;33.84
75972;BME280;64651;47.540;19.088;2023-04-03T11:14:42;100531.03;;;14.43;32.41
75972;BME280;64651;47.540;19.088;2023-04-03T11:30:33;100525.78;;;13.85;33.67
75972;BME280;64651;47.540;19.088;2023-04-03T11:35:37;100510.09;;;13.99;32.94
75972;BME280;64651;47.540;19.088;2023-04-03T11:40:47;100506.94;;;13.87;32.21
75972;BME280;64651;47.540;19.088;2023-04-03T11:51:02;100492.66;;;13.80;33.71
75972;BME280;64651;47.540;19.088;2023-04-03T12:01:53;100497.81;;;13.25;35.73
75972;BME280;64651;47.540;19.088;2023-04-03T12:07:02;100503.38;;;12.96;35.07
75972;BME280;64651;47.540;19.088;2023-04-03T12:12:34;100503.09;;;12.69;35.90
75972;BME280;64651;47.540;19.088;2023-04-03T12:17:38;100506.78;;;12.59;35.86
75972;BME280;64651;47.540;19.088;2023-04-03T12:28:20;100489.31;;;13.22;35.07
75972;BME280;64651;47.540;19.088;2023-04-03T12:33:31;100495.19;;;13.15;35.67
75972;BME280;64651;47.540;19.088;2023-04-03T12:54:36;100469.22;;;13.77;34.13
75972;BME280;64651;47.540;19.088;2023-04-03T12:59:39;100476.44;;;13.55;34.84
75972;BME280;64651;47.540;19.088;2023-04-03T13:04:43;100474.94;;;13.62;34.17
75972;BME280;64651;47.540;19.088;2023-04-03T13:09:55;100473.53;;;14.02;33.48
75972;BME280;64651;47.540;19.088;2023-04-03T13:15:02;100461.88;;;14.05;33.11
75972;BME280;64651;47.540;19.088;2023-04-03T13:25:23;100444.84;;;14.63;31.23
75972;BME280;64651;47.540;19.088;2023-04-03T13:30:37;100443.31;;;14.57;31.43
75972;BME280;64651;47.540;19.088;2023-04-03T13:35:41;100442.25;;;14.20;31.73
75972;BME280;64651;47.540;19.088;2023-04-03T13:41:05;100435.00;;;14.71;31.75
75972;BME280;64651;47.540;19.088;2023-04-03T13:46:26;100440.47;;;14.76;31.65
75972;BME280;64651;47.540;19.088;2023-04-03T13:51:30;100434.44;;;14.41;31.43
75972;BME280;64651;47.540;19.088;2023-04-03T13:56:39;100432.34;;;15.07;30.71
75972;BME280;64651;47.540;19.088;2023-04-03T14:07:26;100412.50;;;17.22;27.01
75972;BME280;64651;47.540;19.088;2023-04-03T14:12:37;100405.69;;;18.87;24.84
75972;BME280;64651;47.540;19.088;2023-04-03T14:17:42;100402.25;;;17.40;27.09
75972;BME280;64651;47.540;19.088;2023-04-03T14:22:44;100407.63;;;15.96;29.01
75972;BME280;64651;47.540;19.088;2023-04-03T14:27:49;100398.47;;;15.10;29.70
75972;BME280;64651;47.540;19.088;2023-04-03T14:32:52;100403.09;;;14.59;30.52
75972;BME280;64651;47.540;19.088;2023-04-03T14:37:55;100417.38;;;14.02;30.85
75972;BME280;64651;47.540;19.088;2023-04-03T14:42:57;100405.28;;;13.79;31.65
75972;BME280;64651;47.540;19.088;2023-04-03T14:48:00;100408.75;;;13.33;32.72
75972;BME280;64651;47.540;19.088;2023-04-03T14:53:06;100407.78;;;13.43;32.84
75972;BME280;64651;47.540;19.088;2023-04-03T14:58:18;100415.50;;;12.80;33.54
75972;BME280;64651;47.540;19.088;2023-04-03T15:03:21;100412.97;;;12.31;34.59
75972;BME280;64651;47.540;19.088;2023-04-03T15:08:26;100418.66;;;12.10;34.99
75972;BME280;64651;47.540;19.088;2023-04-03T15:13:31;100425.09;;;12.01;35.53
75972;BME280;64651;47.540;19.088;2023-04-03T15:18:37;100420.06;;;12.08;36.46
75972;BME280;64651;47.540;19.088;2023-04-03T15:23:41;100426.72;;;12.07;35.60
75972;BME280;64651;47.540;19.088;2023-04-03T15:28:44;100426.31;;;11.85;36.45
75972;BME280;64651;47.540;19.088;2023-04-03T15:33:47;100423.84;;;11.39;36.73
75972;BME280;64651;47.540;19.088;2023-04-03T15:38:51;100409.50;;;10.88;37.72
75972;BME280;64651;47.540;19.088;2023-04-03T15:43:53;100421.22;;;10.24;39.19
75972;BME280;64651;47.540;19.088;2023-04-03T15:48:58;100430.81;;;9.96;39.28
75972;BME280;64651;47.540;19.088;2023-04-03T15:54:03;100418.16;;;9.70;39.72
75972;BME280;64651;47.540;19.088;2023-04-03T15:59:09;100431.88;;;9.65;40.18
75972;BME280;64651;47.540;19.088;2023-04-03T16:04:13;100439.28;;;9.54;40.46
75972;BME280;64651;47.540;19.088;2023-04-03T16:09:17;100438.47;;;9.59;40.89
75972;BME280;64651;47.540;19.088;2023-04-03T16:14:20;100447.00;;;9.77;40.20
75972;BME280;64651;47.540;19.088;2023-04-03T16:19:24;100435.72;;;9.64;39.10
75972;BME280;64651;47.540;19.088;2023-04-03T16:24:27;100444.53;;;9.61;39.34
75972;BME280;64651;47.540;19.088;2023-04-03T16:29:32;100438.47;;;9.49;39.74
75972;BME280;64651;47.540;19.088;2023-04-03T16:34:35;100438.97;;;9.41;39.20
75972;BME280;64651;47.540;19.088;2023-04-03T16:39:37;100441.44;;;9.27;38.76
75972;BME280;64651;47.540;19.088;2023-04-03T16:44:39;100449.34;;;9.18;39.02
75972;BME280;64651;47.540;19.088;2023-04-03T16:49:45;100464.97;;;9.08;39.22
75972;BME280;64651;47.540;19.088;2023-04-03T16:54:50;100482.78;;;9.00;39.45
75972;BME280;64651;47.540;19.088;2023-04-03T16:59:57;100490.97;;;8.95;39.24
75972;BME280;64651;47.540;19.088;2023-04-03T17:04:59;100514.75;;;8.79;39.46
75972;BME280;64651;47.540;19.088;2023-04-03T17:10:03;100533.34;;;8.72;39.50
75972;BME280;64651;47.540;19.088;2023-04-03T17:15:06;100537.63;;;8.53;39.20
75972;BME280;64651;47.540;19.088;2023-04-03T17:20:15;100550.97;;;8.44;39.49
75972;BME280;64651;47.540;19.088;2023-04-03T17:25:18;100562.06;;;8.28;39.76
75972;BME280;64651;47.540;19.088;2023-04-03T17:30:20;100596.03;;;8.27;39.04
75972;BME280;64651;47.540;19.088;2023-04-03T17:35:25;100594.53;;;8.14;39.79
75972;BME280;64651;47.540;19.088;2023-04-03T17:40:29;100609.87;;;8.15;39.74
75972;BME280;64651;47.540;19.088;2023-04-03T17:45:32;100617.09;;;7.99;39.79
75972;BME280;64651;47.540;19.088;2023-04-03T17:50:36;100633.75;;;7.93;40.31
75972;BME280;64651;47.540;19.088;2023-04-03T17:55:41;100633.06;;;7.81;41.01
75972;BME280;64651;47.540;19.088;2023-04-03T18:00:47;100646.25;;;7.84;40.64
75972;BME280;64651;47.540;19.088;2023-04-03T18:05:49;100663.00;;;7.65;40.02
75972;BME280;64651;47.540;19.088;2023-04-03T18:10:56;100678.19;;;7.56;40.16
75972;BME280;64651;47.540;19.088;2023-04-03T18:15:58;100696.06;;;7.42;39.82
75972;BME280;64651;47.540;19.088;2023-04-03T18:21:01;100716.16;;;7.31;40.00
75972;BME280;64651;47.540;19.088;2023-04-03T18:26:03;100715.25;;;7.25;40.14
75972;BME280;64651;47.540;19.088;2023-04-03T18:31:08;100712.19;;;7.22;40.54
75972;BME280;64651;47.540;19.088;2023-04-03T18:36:12;100728.53;;;7.17;40.76
75972;BME280;64651;47.540;19.088;2023-04-03T18:41:14;100744.88;;;7.12;41.06
75972;BME280;64651;47.540;19.088;2023-04-03T18:46:17;100747.00;;;7.10;40.48
75972;BME280;64651;47.540;19.088;2023-04-03T18:51:20;100746.34;;;7.03;39.75
75972;BME280;64651;47.540;19.088;2023-04-03T18:56:23;100753.31;;;6.93;40.13
75972;BME280;64651;47.540;19.088;2023-04-03T19:01:26;100746.66;;;6.89;39.11
75972;BME280;64651;47.540;19.088;2023-04-03T19:06:29;100755.75;;;6.78;38.35
75972;BME280;64651;47.540;19.088;2023-04-03T19:11:32;100734.03;;;6.72;37.59
75972;BME280;64651;47.540;19.088;2023-04-03T19:22:22;100756.47;;;6.57;37.69
75972;BME280;64651;47.540;19.088;2023-04-03T19:27:25;100760.41;;;6.49;36.13
75972;BME280;64651;47.540;19.088;2023-04-03T19:37:48;100768.91;;;6.36;36.23
75972;BME280;64651;47.540;19.088;2023-04-03T19:42:52;100766.09;;;6.20;36.79
75972;BME280;64651;47.540;19.088;2023-04-03T19:47:54;100768.87;;;6.08;36.77
75972;BME280;64651;47.540;19.088;2023-04-03T19:53:03;100779.31;;;5.99;37.40
75972;BME280;64651;47.540;19.088;2023-04-03T19:58:07;100762.97;;;5.88;37.26
75972;BME280;64651;47.540;19.088;2023-04-03T20:03:09;100775.03;;;5.80;37.57
75972;BME280;64651;47.540;19.088;2023-04-03T20:08:11;100767.34;;;5.77;38.17
75972;BME280;64651;47.540;19.088;2023-04-03T20:13:14;100761.66;;;5.67;38.09
75972;BME280;64651;47.540;19.088;2023-04-03T20:18:18;100767.12;;;5.67;38.52
75972;BME280;64651;47.540;19.088;2023-04-03T20:23:21;100763.56;;;5.66;38.29
75972;BME280;64651;47.540;19.088;2023-04-03T20:28:24;100757.97;;;5.61;38.28
75972;BME280;64651;47.540;19.088;2023-04-03T20:33:26;100748.47;;;5.52;38.37
75972;BME280;64651;47.540;19.088;2023-04-03T20:38:29;100745.97;;;5.51;38.68
75972;BME280;64651;47.540;19.088;2023-04-03T20:43:31;100744.09;;;5.51;39.22
75972;BME280;64651;47.540;19.088;2023-04-03T20:48:34;100752.25;;;5.63;37.70
75972;BME280;64651;47.540;19.088;2023-04-03T20:53:38;100738.63;;;5.40;38.30
75972;BME280;64651;47.540;19.088;2023-04-03T20:58:41;100752.03;;;5.29;38.74
75972;BME280;64651;47.540;19.088;2023-04-03T21:03:45;100752.72;;;5.25;38.63
75972;BME280;64651;47.540;19.088;2023-04-03T21:20:08;100744.53;;;5.25;37.87
75972;BME280;64651;47.540;19.088;2023-04-03T21:25:10;100743.59;;;5.19;37.82
75972;BME280;64651;47.540;19.088;2023-04-03T21:30:13;100740.75;;;5.14;36.83
75972;BME280;64651;47.540;19.088;2023-04-03T21:35:16;100739.56;;;5.10;36.92
75972;BME280;64651;47.540;19.088;2023-04-03T21:40:18;100737.91;;;5.09;38.05
75972;BME280;64651;47.540;19.088;2023-04-03T21:45:20;100738.75;;;5.10;38.34
75972;BME280;64651;47.540;19.088;2023-04-03T21:50:23;100745.16;;;5.15;38.13
75972;BME280;64651;47.540;19.088;2023-04-03T21:55:25;100721.87;;;5.13;38.19
75972;BME280;64651;47.540;19.088;2023-04-03T22:00:27;100720.38;;;5.05;38.15
75972;BME280;64651;47.540;19.088;2023-04-03T22:05:30;100715.25;;;4.97;38.23
75972;BME280;64651;47.540;19.088;2023-04-03T22:10:33;100710.84;;;4.96;38.69
75972;BME280;64651;47.540;19.088;2023-04-03T22:15:35;100710.12;;;4.89;38.31
75972;BME280;64651;47.540;19.088;2023-04-03T22:20:43;100706.22;;;4.85;38.73
75972;BME280;64651;47.540;19.088;2023-04-03T22:26:15;100705.50;;;4.78;38.86
75972;BME280;64651;47.540;19.088;2023-04-03T22:31:17;100711.16;;;4.65;39.33
75972;BME280;64651;47.540;19.088;2023-04-03T22:36:21;100703.84;;;4.35;39.97
75972;BME280;64651;47.540;19.088;2023-04-03T22:41:23;100703.47;;;4.02;40.26
75972;BME280;64651;47.540;19.088;2023-04-03T22:46:25;100715.03;;;3.79;40.99
75972;BME280;64651;47.540;19.088;2023-04-03T22:51:29;100720.03;;;3.46;41.75
75972;BME280;64651;47.540;19.088;2023-04-03T22:56:31;100719.31;;;3.32;41.78
75972;BME280;64651;47.540;19.088;2023-04-03T23:01:33;100714.13;;;3.06;42.22
75972;BME280;64651;47.540;19.088;2023-04-03T23:06:38;100707.53;;;2.95;42.38
75972;BME280;64651;47.540;19.088;2023-04-03T23:11:41;100717.03;;;2.86;42.27
75972;BME280;64651;47.540;19.088;2023-04-03T23:16:43;100723.78;;;2.77;42.49
75972;BME280;64651;47.540;19.088;2023-04-03T23:21:47;100708.19;;;2.66;42.44
75972;BME280;64651;47.540;19.088;2023-04-03T23:26:49;100711.37;;;2.56;42.96
75972;BME280;64651;47.540;19.088;2023-04-03T23:31:52;100705.78;;;2.51;43.77
75972;BME280;64651;47.540;19.088;2023-04-03T23:36:54;100708.56;;;2.38;44.97
75972;BME280;64651;47.540;19.088;2023-04-03T23:41:56;100708.81;;;2.36;44.54
75972;BME280;64651;47.540;19.088;2023-04-03T23:46:59;100710.91;;;2.34;45.00
75972;BME280;64651;47.540;19.088;2023-04-03T23:52:02;100696.56;;;2.21;45.79
75972;BME280;64651;47.540;19.088;2023-04-03T23:57:04;100707.66;;;2.19;46.15
